To NAV CANADA Home Page Login to a new session Search on AWWS site Feedback and Comments Disclaimer Vers la page française équivalente Tips FAQ What's new on the site To the Forecasts and Observations / NOTAM section To "File a Flight Plan" website Publications and other links Update of the User's profile FIC Telephone Numbers My Weather Data Folder Route Weather Data Regional Weather Data Local Weather Data To the Forecasts and Observations / NOTAM section
Request Generated 02/23/2017 at 20:46:23 UTC . Weather information available at that time is displayed.

METAR/TAF

OTTAWA/MACDONALD-CARTIER INTL/ON    

METAR CYOW 232000Z 22014G20KT 15SM FEW020 FEW210 11/08 A2955 RMK
SC1CI2 SC TR SLP012 DENSITY ALT 400FT=
METAR CYOW 231900Z 22012G23KT 10SM SCT014 BKN040 11/08 A2954 RMK
SC4SC2 SLP006=
SPECI CYOW 231844Z 22012G18KT 15SM BKN017 10/08 A2954 RMK SC5 SLP007=
METAR CYOW 231800Z 21013G20KT 10SM OVC011 10/08 A2954 RMK SC8 SLP007=

TAF CYOW 232038Z 2321/2418 23012G22KT P6SM FEW030 TEMPO 2321/2324
BKN030
FM240000 30010KT P6SM BKN030 TEMPO 2400/2403 BKN020
FM240300 31006KT 6SM BR BKN020
FM241300 33010KT 6SM BR BKN020 BKN100 PROB30 2413/2415 3SM FZRA
BR BKN020
FM241500 02010KT 6SM -RA BR BKN020 OVC060
FM241700 06012KT 2SM -RA BR BKN006 OVC012
RMK NXT FCST BY 240000Z=
Your time UTC time
Weather data provided by Environment Canada and NAV CANADA